Time;durP1;ratioP1;P1;durP2;ratioP2;P2;SDS_P1;SDS_P2;PMS_P1;PMS_P2;Temp;Humidity;BMP_temperature;BMP_pressure;BME280_temperature;BME280_humidity;BME280_pressure;Samples;Min_cycle;Max_cycle;Signal;HPM_P1;HPM_P2
2021/03/06 00:00:36;;;;;;;5.27;2.67;;;;;;;-2.97;70.95;100410.69;4974972;28;20060;-81
2021/03/06 00:03:03;;;;;;;5.47;2.40;;;;;;;-3.07;71.37;100418.22;4976562;28;20059;-81
2021/03/06 00:05:29;;;;;;;3.20;2.53;;;;;;;-2.99;71.49;100436.53;4975848;28;20437;-81
2021/03/06 00:07:55;;;;;;;3.23;2.40;;;;;;;-3.12;71.49;100422.88;4976163;28;20051;-81
2021/03/06 00:10:23;;;;;;;4.33;2.50;;;;;;;-3.08;70.88;100429.81;4976469;28;20063;-81
2021/03/06 00:12:51;;;;;;;4.23;2.53;;;;;;;-2.96;71.08;100453.22;4976459;28;20057;-81
2021/03/06 00:15:32;;;;;;;3.20;2.47;;;;;;;-2.93;71.17;100444.22;4975455;28;20078;-81
2021/03/06 00:17:58;;;;;;;4.53;2.67;;;;;;;-3.10;70.29;100411.25;4974843;28;20442;-81
2021/03/06 00:20:25;;;;;;;6.27;2.87;;;;;;;-3.06;70.60;100430.59;4975750;28;20057;-81
2021/03/06 00:22:52;;;;;;;3.10;2.30;;;;;;;-3.00;70.28;100429.47;4976173;28;20430;-81
2021/03/06 00:25:20;;;;;;;5.27;2.80;;;;;;;-3.14;70.81;100406.97;4975492;28;20078;-80
2021/03/06 00:27:47;;;;;;;3.40;2.50;;;;;;;-3.24;71.13;100406.53;4975909;28;20085;-80
2021/03/06 00:30:16;;;;;;;4.37;2.33;;;;;;;-2.97;71.48;100446.16;4975637;28;20134;-80
2021/03/06 00:32:42;;;;;;;4.33;2.73;;;;;;;-3.11;71.44;100438.78;4974446;28;20057;-81
2021/03/06 00:35:10;;;;;;;3.63;2.80;;;;;;;-3.38;72.09;100406.25;4956230;28;20688;-81
2021/03/06 00:37:37;;;;;;;4.47;2.43;;;;;;;-3.26;72.75;100450.94;4956305;28;20051;-80
2021/03/06 00:40:05;;;;;;;3.97;2.43;;;;;;;-3.27;72.28;100451.00;4956809;28;20058;-80
2021/03/06 00:42:31;;;;;;;3.07;2.30;;;;;;;-3.26;71.64;100434.13;4964098;28;20076;-80
2021/03/06 00:44:58;;;;;;;3.33;2.57;;;;;;;-3.36;72.69;100438.09;4974911;28;20062;-80
2021/03/06 00:47:25;;;;;;;4.37;2.80;;;;;;;-3.26;72.73;100448.28;4975603;28;20616;-81
2021/03/06 00:49:51;;;;;;;4.43;2.50;;;;;;;-3.39;72.54;100434.66;4975726;28;20085;-81
2021/03/06 00:52:17;;;;;;;5.67;2.83;;;;;;;-3.58;73.21;100409.78;4975398;28;20054;-80
2021/03/06 00:54:44;;;;;;;4.57;2.63;;;;;;;-3.45;72.82;100439.34;4973874;28;20058;-80
2021/03/06 00:57:10;;;;;;;4.90;2.37;;;;;;;-3.54;73.16;100437.06;4975256;28;20050;-80
2021/03/06 00:59:36;;;;;;;5.80;2.37;;;;;;;-3.67;73.09;100415.44;4974523;28;20121;-81
2021/03/06 01:02:04;;;;;;;2.83;2.27;;;;;;;-3.47;73.07;100434.09;4975359;28;20055;-81
2021/03/06 01:04:30;;;;;;;6.00;2.60;;;;;;;-3.67;73.29;100412.78;4974870;28;20067;-81
2021/03/06 01:06:56;;;;;;;3.57;2.70;;;;;;;-3.67;73.24;100407.47;4975421;28;20055;-80
2021/03/06 01:09:23;;;;;;;5.47;2.30;;;;;;;-3.61;72.96;100415.22;4975018;28;20470;-81
2021/03/06 01:11:49;;;;;;;6.13;2.53;;;;;;;-3.74;73.25;100418.34;4975071;28;20047;-80
2021/03/06 01:14:17;;;;;;;4.57;2.50;;;;;;;-3.69;73.25;100415.50;4973778;28;20055;-80
2021/03/06 01:16:43;;;;;;;4.03;2.60;;;;;;;-3.76;73.65;100408.75;4975015;28;20086;-81
2021/03/06 01:19:10;;;;;;;4.67;2.67;;;;;;;-3.74;73.41;100431.66;4973169;28;20105;-81
2021/03/06 01:21:36;;;;;;;8.30;2.67;;;;;;;-4.04;73.81;100388.59;4974875;28;20065;-80
2021/03/06 01:24:03;;;;;;;3.87;2.63;;;;;;;-3.91;73.87;100424.38;4974434;28;20071;-80
2021/03/06 01:26:29;;;;;;;3.97;2.80;;;;;;;-3.84;73.64;100445.38;4974370;28;20058;-80
2021/03/06 01:28:56;;;;;;;4.23;2.90;;;;;;;-4.04;73.10;100401.88;4974385;28;20402;-80
2021/03/06 01:31:22;;;;;;;4.07;2.37;;;;;;;-4.02;73.16;100397.38;4974737;28;20062;-80
2021/03/06 01:33:48;;;;;;;4.00;2.63;;;;;;;-4.03;73.63;100406.28;4974851;28;20105;-81
2021/03/06 01:36:16;;;;;;;4.70;2.77;;;;;;;-4.06;73.13;100402.84;4974420;28;20066;-81
2021/03/06 01:38:42;;;;;;;4.57;2.27;;;;;;;-3.93;73.17;100423.56;4970488;28;20039;-80
2021/03/06 01:41:08;;;;;;;4.53;2.53;;;;;;;-4.10;72.78;100386.19;4954726;28;20059;-80
2021/03/06 01:43:35;;;;;;;4.10;2.70;;;;;;;-4.04;72.71;100401.03;4955192;28;20059;-80
2021/03/06 01:46:01;;;;;;;4.43;2.67;;;;;;;-4.20;73.15;100400.75;4954741;28;20059;-80
2021/03/06 01:48:27;;;;;;;4.83;3.03;;;;;;;-4.14;72.92;100395.19;4955071;28;20098;-81
2021/03/06 01:50:54;;;;;;;4.10;2.50;;;;;;;-4.08;73.39;100416.19;4955216;28;20642;-80
2021/03/06 01:53:22;;;;;;;4.30;2.53;;;;;;;-4.28;73.24;100396.59;4955214;28;20055;-80
2021/03/06 01:55:49;;;;;;;5.50;3.30;;;;;;;-4.05;74.22;100420.53;4954534;28;20055;-80
2021/03/06 01:58:17;;;;;;;6.33;2.87;;;;;;;-4.13;74.07;100415.53;4954664;28;20322;-80
2021/03/06 02:00:43;;;;;;;3.63;2.47;;;;;;;-4.08;73.66;100410.88;4952733;28;20051;-80
2021/03/06 02:03:13;;;;;;;3.30;2.63;;;;;;;-4.13;74.00;100420.84;4972243;28;20046;-80
2021/03/06 02:05:39;;;;;;;4.88;2.47;;;;;;;-4.14;74.32;100424.41;4973073;28;20046;-80
2021/03/06 02:08:06;;;;;;;3.13;2.40;;;;;;;-4.23;74.70;100419.47;4974435;28;20055;-80
2021/03/06 02:10:37;;;;;;;4.80;2.53;;;;;;;-4.48;74.17;100384.13;4973335;28;20054;-80
2021/03/06 02:13:13;;;;;;;3.90;2.50;;;;;;;-4.41;74.52;100411.31;4973892;28;20101;-80
2021/03/06 02:15:48;;;;;;;3.10;2.43;;;;;;;-4.49;74.47;100386.84;4971941;28;20050;-80
2021/03/06 02:18:22;;;;;;;4.07;3.00;;;;;;;-4.25;73.85;100406.25;4972238;28;20513;-80
2021/03/06 02:20:54;;;;;;;4.13;2.40;;;;;;;-4.33;74.82;100413.66;4974006;28;20050;-80
2021/03/06 02:23:56;;;;;;;6.03;3.10;;;;;;;-4.35;75.05;100420.81;4974244;28;20138;-80
2021/03/06 02:26:43;;;;;;;4.30;2.30;;;;;;;-4.61;74.63;100380.19;4973192;28;20541;-80
2021/03/06 02:29:40;;;;;;;4.40;2.40;;;;;;;-4.43;74.34;100409.63;4961765;28;20066;-81
2021/03/06 02:32:11;;;;;;;2.60;2.13;;;;;;;-4.39;74.13;100412.09;4952294;28;20058;-81
2021/03/06 02:34:40;;;;;;;6.30;2.73;;;;;;;-4.40;74.69;100414.81;4954069;28;20110;-80
2021/03/06 02:37:10;;;;;;;7.05;2.30;;;;;;;-4.59;74.71;100404.03;4954500;28;20499;-80
2021/03/06 02:39:41;;;;;;;4.10;2.60;;;;;;;-4.49;74.74;100418.69;4954201;28;20051;-79
2021/03/06 02:42:09;;;;;;;6.53;2.77;;;;;;;-4.65;74.70;100398.03;4954124;28;20050;-80
2021/03/06 02:44:37;;;;;;;3.77;2.70;;;;;;;-4.51;74.64;100413.44;4958271;28;20053;-81
2021/03/06 02:47:04;;;;;;;4.13;2.60;;;;;;;-4.54;73.97;100408.25;4974011;28;20059;-80
2021/03/06 02:49:31;;;;;;;4.43;2.53;;;;;;;-4.46;74.56;100416.81;4973771;28;20098;-80
2021/03/06 02:51:57;;;;;;;5.57;2.40;;;;;;;-4.56;74.28;100403.91;4973681;28;20054;-80
2021/03/06 02:54:23;;;;;;;3.40;2.10;;;;;;;-4.80;73.99;100390.66;4973383;28;20051;-80
2021/03/06 02:56:50;;;;;;;4.57;2.87;;;;;;;-4.74;75.06;100413.44;4973784;28;20058;-80
2021/03/06 02:59:40;;;;;;;3.63;2.73;;;;;;;-4.92;75.34;100386.69;4972186;28;20592;-79
2021/03/06 03:02:17;;;;;;;3.70;2.50;;;;;;;-4.79;75.35;100408.28;4973773;28;20061;-80
2021/03/06 03:04:58;;;;;;;4.60;2.80;;;;;;;-4.70;75.22;100393.81;4972920;28;20383;-79
2021/03/06 03:07:31;;;;;;;2.60;1.90;;;;;;;-4.76;75.02;100405.53;4973603;28;20133;-79
2021/03/06 03:10:02;;;;;;;6.40;3.17;;;;;;;-4.84;75.12;100371.31;4973529;28;20050;-80
2021/03/06 03:12:35;;;;;;;5.50;2.63;;;;;;;-4.76;75.22;100375.50;4973437;28;20049;-80
2021/03/06 03:15:10;;;;;;;5.73;2.40;;;;;;;-4.63;74.74;100398.84;4971122;28;20081;-80
2021/03/06 03:17:39;;;;;;;3.33;2.30;;;;;;;-4.55;75.08;100397.69;4973124;28;20065;-79
2021/03/06 03:20:12;;;;;;;3.67;2.20;;;;;;;-4.64;74.22;100370.59;4976996;28;20051;-79
2021/03/06 03:22:45;;;;;;;4.90;2.70;;;;;;;-4.58;73.01;100376.56;4977476;28;20050;-81
2021/03/06 03:25:13;;;;;;;4.30;2.90;;;;;;;-4.32;71.97;100388.81;4976452;28;20047;-80
2021/03/06 03:27:41;;;;;;;4.67;2.60;;;;;;;-4.33;72.32;100387.97;4977187;28;20050;-80
2021/03/06 03:30:11;;;;;;;4.40;2.67;;;;;;;-4.42;71.83;100367.09;4977180;28;20047;-80
2021/03/06 03:32:38;;;;;;;3.50;2.47;;;;;;;-4.29;72.31;100400.22;4977156;28;20051;-80
2021/03/06 03:35:07;;;;;;;3.97;2.37;;;;;;;-4.48;71.61;100364.69;4976325;28;20058;-79
2021/03/06 03:37:36;;;;;;;7.32;2.58;;;;;;;-4.29;71.08;100400.22;4976886;28;20058;-80
2021/03/06 03:40:04;;;;;;;3.70;2.50;;;;;;;-4.50;71.53;100375.38;4977171;28;20053;-80
2021/03/06 03:42:31;;;;;;;4.67;2.77;;;;;;;-4.38;71.52;100405.88;4976583;28;20105;-80
2021/03/06 03:44:58;;;;;;;3.87;2.90;;;;;;;-4.33;71.18;100403.03;4975962;28;20557;-79
2021/03/06 03:47:26;;;;;;;5.23;3.13;;;;;;;-4.46;71.05;100392.91;4976487;28;20054;-79
2021/03/06 03:49:53;;;;;;;5.93;3.30;;;;;;;-4.31;71.32;100393.22;4976581;28;20061;-79
2021/03/06 03:52:19;;;;;;;3.27;2.50;;;;;;;-4.28;71.51;100387.78;4976453;28;20043;-79
2021/03/06 03:54:48;;;;;;;7.80;3.10;;;;;;;-4.25;70.39;100392.13;4975833;28;20059;-80
2021/03/06 03:57:14;;;;;;;3.30;2.53;;;;;;;-4.38;71.58;100407.66;4976544;28;20054;-80
2021/03/06 03:59:41;;;;;;;3.10;2.73;;;;;;;-4.70;72.77;100388.53;4974523;28;20058;-80
2021/03/06 04:02:07;;;;;;;3.93;2.63;;;;;;;-4.56;72.95;100427.81;4974170;28;20128;-80
2021/03/06 04:04:34;;;;;;;2.87;2.57;;;;;;;-4.75;72.62;100411.72;4975250;28;20601;-79
2021/03/06 04:07:02;;;;;;;4.40;2.47;;;;;;;-4.94;73.74;100393.81;4976344;28;20538;-80
2021/03/06 04:09:28;;;;;;;6.60;2.73;;;;;;;-4.86;74.37;100420.09;4976317;28;20051;-80
2021/03/06 04:11:55;;;;;;;6.60;2.90;;;;;;;-4.95;73.97;100401.81;4976121;28;20074;-79
2021/03/06 04:14:22;;;;;;;7.47;3.17;;;;;;;-4.87;74.29;100410.38;4975481;28;20058;-79
2021/03/06 04:16:48;;;;;;;3.93;2.70;;;;;;;-4.81;74.17;100429.59;4974185;28;20046;-79
2021/03/06 04:19:15;;;;;;;4.77;3.50;;;;;;;-4.93;74.15;100424.72;4974593;28;20046;-80
2021/03/06 04:21:42;;;;;;;7.13;3.80;;;;;;;-5.00;73.95;100429.41;4976034;28;20054;-80
2021/03/06 04:24:09;;;;;;;3.90;2.50;;;;;;;-4.94;73.75;100427.44;4975579;28;20054;-80
2021/03/06 04:26:35;;;;;;;5.80;2.67;;;;;;;-5.07;73.96;100406.66;4976160;28;20058;-79
2021/03/06 04:29:01;;;;;;;3.47;2.57;;;;;;;-5.00;74.20;100423.22;4975685;28;20133;-80
2021/03/06 04:31:28;;;;;;;7.67;3.03;;;;;;;-5.19;74.52;100409.75;4975989;28;20106;-80
2021/03/06 04:33:54;;;;;;;5.07;2.90;;;;;;;-5.25;75.19;100424.09;4975684;28;20047;-79
2021/03/06 04:36:20;;;;;;;5.07;3.20;;;;;;;-5.33;75.00;100418.19;4975055;28;20046;-80
2021/03/06 04:38:48;;;;;;;5.67;3.17;;;;;;;-5.42;74.67;100410.53;4975434;28;20046;-79
2021/03/06 04:41:14;;;;;;;8.03;3.37;;;;;;;-5.42;74.67;100418.50;4975597;28;20453;-79
2021/03/06 04:43:40;;;;;;;6.20;3.20;;;;;;;-5.31;74.55;100423.44;4975912;28;20055;-81
2021/03/06 04:46:07;;;;;;;5.30;3.07;;;;;;;-5.33;75.70;100426.13;4975006;28;20046;-81
2021/03/06 04:48:35;;;;;;;4.80;3.20;;;;;;;-5.30;74.72;100426.03;4974540;28;20498;-81
2021/03/06 04:51:02;;;;;;;9.10;3.10;;;;;;;-5.16;74.55;100444.97;4975903;28;20117;-81
2021/03/06 04:53:28;;;;;;;8.03;2.70;;;;;;;-5.34;74.47;100422.63;4975283;28;20043;-79
2021/03/06 04:55:56;;;;;;;4.13;2.97;;;;;;;-5.24;74.79;100424.94;4974319;28;20062;-79
2021/03/06 04:58:22;;;;;;;9.97;2.70;;;;;;;-5.28;74.19;100421.56;4974858;28;20050;-79
2021/03/06 05:00:49;;;;;;;3.97;2.93;;;;;;;-5.29;74.52;100435.72;4974022;28;20043;-81
2021/03/06 05:03:16;;;;;;;6.00;2.67;;;;;;;-5.28;74.49;100431.28;4975063;28;20058;-81
2021/03/06 05:05:42;;;;;;;3.10;2.57;;;;;;;-5.46;75.12;100411.59;4974606;28;20043;-81
2021/03/06 05:08:08;;;;;;;7.30;3.13;;;;;;;-5.43;74.98;100416.78;4975014;28;20047;-81
2021/03/06 05:10:34;;;;;;;4.10;2.90;;;;;;;-5.46;75.22;100433.66;4974658;28;20406;-81
2021/03/06 05:13:02;;;;;;;5.57;3.30;;;;;;;-5.37;74.96;100433.34;4975292;28;20065;-81
2021/03/06 05:15:28;;;;;;;6.87;3.67;;;;;;;-5.34;75.16;100435.03;4973470;28;20055;-79
2021/03/06 05:17:55;;;;;;;10.50;2.90;;;;;;;-5.53;74.22;100417.06;4973371;28;20082;-79
2021/03/06 05:20:21;;;;;;;6.43;2.50;;;;;;;-5.45;74.84;100423.91;4975181;28;20054;-79
2021/03/06 05:22:48;;;;;;;4.33;2.40;;;;;;;-5.36;74.04;100447.44;4974741;28;20051;-79
2021/03/06 05:25:14;;;;;;;3.83;2.60;;;;;;;-5.42;74.78;100434.41;4974287;28;20058;-79
2021/03/06 05:27:40;;;;;;;4.33;2.80;;;;;;;-5.51;75.02;100446.19;4974832;28;20055;-78
2021/03/06 05:30:09;;;;;;;7.10;3.00;;;;;;;-5.53;75.08;100424.16;4974756;28;20054;-79
2021/03/06 05:32:35;;;;;;;7.47;3.10;;;;;;;-5.47;74.40;100428.41;4974445;28;20063;-79
2021/03/06 05:35:02;;;;;;;6.20;2.77;;;;;;;-5.59;75.24;100405.84;4973898;28;20061;-79
2021/03/06 05:37:30;;;;;;;4.23;2.90;;;;;;;-5.54;75.09;100417.13;4974408;28;20043;-79
2021/03/06 05:39:57;;;;;;;5.83;3.27;;;;;;;-5.37;74.54;100433.34;4973958;28;20047;-78
2021/03/06 05:42:24;;;;;;;5.97;3.07;;;;;;;-5.24;75.38;100428.50;4972882;28;20046;-79
2021/03/06 05:44:52;;;;;;;5.30;2.93;;;;;;;-5.49;73.33;100398.41;4954634;28;20055;-80
2021/03/06 05:47:19;;;;;;;4.93;2.80;;;;;;;-5.45;74.50;100410.66;4955482;28;20051;-79
2021/03/06 05:49:45;;;;;;;6.40;2.60;;;;;;;-5.35;74.02;100410.28;4955070;28;20051;-79
2021/03/06 05:52:17;;;;;;;3.87;2.03;;;;;;;-5.46;73.89;100398.34;4955069;28;20566;-79
2021/03/06 05:54:48;;;;;;;7.67;3.37;;;;;;;-5.42;72.78;100400.84;4954349;28;20051;-79
2021/03/06 05:57:15;;;;;;;6.37;3.30;;;;;;;-5.34;73.21;100412.03;4955017;28;20106;-80
2021/03/06 05:59:42;;;;;;;5.23;3.27;;;;;;;-5.11;73.14;100439.50;4953326;28;20062;-79
2021/03/06 06:02:09;;;;;;;3.97;2.83;;;;;;;-5.17;73.50;100445.03;4971605;28;20050;-80
2021/03/06 06:04:36;;;;;;;3.73;3.13;;;;;;;-5.32;73.59;100435.81;4971025;28;20050;-80
2021/03/06 06:07:04;;;;;;;4.63;3.23;;;;;;;-5.50;74.19;100424.06;4971555;28;20075;-80
2021/03/06 06:09:33;;;;;;;3.47;2.63;;;;;;;-5.37;74.48;100443.09;4965043;28;20055;-79
2021/03/06 06:12:00;;;;;;;4.68;2.95;;;;;;;-5.38;73.80;100434.25;4961156;28;20050;-80
2021/03/06 06:14:26;;;;;;;4.60;2.77;;;;;;;-5.22;73.49;100439.91;4972937;28;20105;-80
2021/03/06 06:16:53;;;;;;;5.07;3.27;;;;;;;-5.19;73.68;100461.00;4972885;28;20061;-79
2021/03/06 06:19:20;;;;;;;8.50;3.10;;;;;;;-5.23;73.96;100450.56;4952721;28;20381;-80
2021/03/06 06:21:48;;;;;;;5.77;2.90;;;;;;;-5.26;73.95;100451.50;4954186;28;20055;-79
2021/03/06 06:24:17;;;;;;;8.53;3.40;;;;;;;-5.36;74.58;100429.78;4953134;28;20525;-79
2021/03/06 06:26:53;;;;;;;4.57;2.77;;;;;;;-5.27;73.88;100438.31;4954097;28;20102;-79
2021/03/06 06:29:28;;;;;;;5.30;2.67;;;;;;;-5.15;73.01;100445.84;4954028;28;20648;-79
2021/03/06 06:32:02;;;;;;;8.20;3.37;;;;;;;-5.02;72.72;100443.63;4953852;28;20534;-78
2021/03/06 06:34:28;;;;;;;5.47;2.73;;;;;;;-4.81;71.96;100434.88;4953229;28;20058;-79
2021/03/06 06:36:55;;;;;;;4.23;3.27;;;;;;;-4.53;70.26;100423.25;4953803;28;20051;-79
2021/03/06 06:39:29;;;;;;;5.47;3.17;;;;;;;-4.13;69.43;100444.75;4953751;28;20054;-79
2021/03/06 06:41:56;;;;;;;10.33;3.37;;;;;;;-4.14;69.14;100417.34;4954725;29;20055;-79
2021/03/06 06:44:24;;;;;;;5.93;3.33;;;;;;;-3.77;68.16;100453.03;4954023;28;20466;-79
2021/03/06 06:46:52;;;;;;;5.23;3.10;;;;;;;-3.67;68.50;100442.03;4954559;28;20055;-80
2021/03/06 06:49:19;;;;;;;6.23;2.90;;;;;;;-3.53;67.89;100444.13;4954488;28;20487;-79
2021/03/06 06:51:59;;;;;;;4.30;2.53;;;;;;;-3.30;67.37;100456.44;4956279;28;20483;-80
2021/03/06 06:54:26;;;;;;;1.97;1.77;;;;;;;-3.26;66.13;100458.06;4957652;28;20059;-80
2021/03/06 06:57:09;;;;;;;4.27;2.93;;;;;;;-3.16;67.54;100462.06;4958464;28;20066;-79
2021/03/06 06:59:36;;;;;;;4.43;3.20;;;;;;;-3.19;66.48;100438.25;4956620;28;20051;-79
2021/03/06 07:02:07;;;;;;;5.27;3.67;;;;;;;-3.19;66.48;100422.28;4960695;28;20395;-80
2021/03/06 07:04:50;;;;;;;6.07;3.90;;;;;;;-3.00;65.89;100451.59;4976557;28;20062;-80
2021/03/06 07:07:18;;;;;;;7.57;3.13;;;;;;;-2.93;65.01;100436.25;4977013;28;20513;-80
2021/03/06 07:10:00;;;;;;;5.33;2.97;;;;;;;-2.72;64.53;100453.06;4977168;28;20051;-80
2021/03/06 07:12:28;;;;;;;4.83;3.27;;;;;;;-2.67;64.43;100446.56;4977312;28;20054;-81
2021/03/06 07:15:14;;;;;;;7.93;3.20;;;;;;;-2.43;64.10;100458.88;4974887;28;20061;-80
2021/03/06 07:17:43;;;;;;;6.47;3.27;;;;;;;-2.52;64.23;100439.69;4975590;28;20503;-80
2021/03/06 07:20:12;;;;;;;7.03;2.60;;;;;;;-2.45;64.68;100442.06;4974358;28;20054;-81
2021/03/06 07:22:39;;;;;;;3.67;2.53;;;;;;;-2.31;63.47;100461.81;4975339;28;20055;-80
2021/03/06 07:25:06;;;;;;;3.90;2.73;;;;;;;-2.34;64.56;100445.97;4973865;28;20054;-80
2021/03/06 07:27:42;;;;;;;3.33;3.00;;;;;;;-2.26;62.57;100450.94;4974568;28;20054;-82
2021/03/06 07:30:13;;;;;;;4.43;3.30;;;;;;;-2.08;63.65;100477.66;4973893;28;20138;-81
2021/03/06 07:32:41;;;;;;;5.30;3.20;;;;;;;-1.89;62.88;100467.84;4977042;28;20158;-81
2021/03/06 07:35:09;;;;;;;5.23;3.00;;;;;;;-1.80;61.82;100472.75;4973976;28;20062;-81
2021/03/06 07:37:36;;;;;;;6.40;2.97;;;;;;;-1.90;61.71;100438.63;4974491;28;20254;-81
2021/03/06 07:40:07;;;;;;;7.00;2.80;;;;;;;-1.57;61.22;100481.44;4974470;28;20043;-81
2021/03/06 07:42:41;;;;;;;6.37;3.00;;;;;;;-1.63;61.29;100442.59;4974164;28;20055;-81
2021/03/06 07:45:09;;;;;;;5.83;3.50;;;;;;;-1.32;59.94;100467.75;4973976;28;20131;-81
2021/03/06 07:47:39;;;;;;;5.67;2.77;;;;;;;-1.37;60.40;100452.91;4974222;28;20055;-81
2021/03/06 07:50:07;;;;;;;9.27;3.40;;;;;;;-1.19;59.36;100461.78;4973586;28;20046;-81
2021/03/06 07:52:37;;;;;;;4.23;3.47;;;;;;;-1.02;59.70;100475.13;4974160;28;20059;-81
2021/03/06 07:55:09;;;;;;;4.70;3.47;;;;;;;-1.07;60.37;100459.38;4973482;28;20050;-82
2021/03/06 07:58:04;;;;;;;4.87;3.70;;;;;;;-0.92;60.90;100467.50;4973999;28;20404;-81
2021/03/06 08:00:50;;;;;;;6.77;3.37;;;;;;;-0.79;60.77;100489.09;4974381;28;20054;-81
2021/03/06 08:03:36;;;;;;;7.67;3.50;;;;;;;-0.73;59.69;100486.09;4973414;28;20059;-82
2021/03/06 08:06:19;;;;;;;6.60;3.30;;;;;;;-0.85;58.20;100446.72;4971773;28;20046;-82
2021/03/06 08:09:02;;;;;;;6.30;4.13;;;;;;;-0.76;58.93;100454.22;4962434;28;20126;-82
2021/03/06 08:11:46;;;;;;;4.87;3.20;;;;;;;-0.68;57.65;100451.16;4973709;28;20054;-82
2021/03/06 08:14:34;;;;;;;9.20;3.67;;;;;;;-0.55;59.72;100463.75;4973109;28;20055;-82
2021/03/06 08:17:01;;;;;;;6.10;3.53;;;;;;;-0.32;58.51;100479.50;4973259;28;20054;-83
2021/03/06 08:19:29;;;;;;;5.57;3.93;;;;;;;-0.42;60.08;100457.75;4971740;28;20047;-82
2021/03/06 08:21:58;;;;;;;7.60;3.33;;;;;;;-0.25;56.71;100475.56;4968166;28;20051;-82
2021/03/06 08:24:27;;;;;;;6.27;3.77;;;;;;;-0.13;57.23;100488.25;4954442;28;20043;-82
2021/03/06 08:27:13;;;;;;;6.03;4.20;;;;;;;-0.29;57.31;100460.63;4970140;28;20061;-82
2021/03/06 08:29:39;;;;;;;4.17;3.70;;;;;;;-0.25;57.07;100473.75;4956571;28;20061;-82
2021/03/06 08:32:12;;;;;;;9.23;3.50;;;;;;;-0.20;58.06;100468.16;4968895;28;20503;-82
2021/03/06 08:34:42;;;;;;;5.03;3.53;;;;;;;0.06;58.40;100493.47;4973386;28;20059;-82
2021/03/06 08:37:34;;;;;;;6.28;3.95;;;;;;;0.16;57.57;100499.16;4967291;28;20058;-82
2021/03/06 08:40:09;;;;;;;3.73;3.17;;;;;;;0.19;58.13;100480.25;4969656;28;20117;-83
2021/03/06 08:42:38;;;;;;;6.20;3.47;;;;;;;0.26;56.70;100486.97;4974638;28;20054;-82
2021/03/06 08:45:08;;;;;;;5.22;3.05;;;;;;;0.29;55.65;100486.81;4972971;28;20503;-82
2021/03/06 08:47:36;;;;;;;6.25;3.78;;;;;;;0.33;58.12;100483.03;4971434;28;20059;-82
2021/03/06 08:50:06;;;;;;;9.37;3.00;;;;;;;0.42;58.88;100472.72;4968713;28;20101;-82
2021/03/06 08:52:32;;;;;;;;;;;;;;;0.63;55.95;100498.28;4972966;28;20114;-83
2021/03/06 08:54:59;;;;;;;4.80;3.30;;;;;;;0.41;55.56;100471.88;4973643;28;19930;-83
2021/03/06 08:57:29;;;;;;;6.30;3.90;;;;;;;0.52;55.23;100489.97;4973765;28;20065;-82
2021/03/06 09:00:01;;;;;;;4.63;3.70;;;;;;;0.47;55.29;100481.38;4952791;28;20047;-82
2021/03/06 09:02:32;;;;;;;5.20;3.30;;;;;;;0.57;55.44;100479.88;4956299;28;20476;-83
2021/03/06 09:05:12;;;;;;;5.83;4.07;;;;;;;0.70;54.06;100494.25;4969079;28;20133;-83
2021/03/06 09:07:57;;;;;;;5.37;3.10;;;;;;;0.51;53.80;100461.50;4963481;28;20043;-82
2021/03/06 09:10:31;;;;;;;5.20;3.10;;;;;;;0.69;55.23;100483.66;4967606;28;20141;-82
2021/03/06 09:13:16;;;;;;;6.57;4.70;;;;;;;1.00;55.08;100496.09;4973549;28;20074;-81
2021/03/06 09:15:47;;;;;;;4.93;3.40;;;;;;;1.04;55.21;100478.91;4973646;28;20055;-81
2021/03/06 09:18:17;;;;;;;6.93;3.63;;;;;;;1.20;54.86;100488.69;4972706;28;20047;-82
2021/03/06 09:20:48;;;;;;;5.35;3.80;;;;;;;1.08;54.64;100476.88;4973816;28;20051;-81
2021/03/06 09:23:26;;;;;;;7.97;3.53;;;;;;;1.05;53.26;100456.53;4973504;28;20047;-81
2021/03/06 09:25:53;;;;;;;5.80;2.87;;;;;;;1.29;52.82;100492.63;4972365;28;20063;-82
2021/03/06 09:28:23;;;;;;;5.53;3.53;;;;;;;1.38;52.75;100486.72;4973890;28;20131;-82
2021/03/06 09:30:51;;;;;;;5.47;2.75;;;;;;;1.24;49.91;100461.63;4974091;28;20070;-81
2021/03/06 09:33:25;;;;;;;5.87;3.50;;;;;;;1.49;52.95;100489.63;4973682;28;20046;-82
2021/03/06 09:35:56;;;;;;;4.70;2.90;;;;;;;1.46;49.44;100497.84;4973990;28;20078;-82
2021/03/06 09:38:23;;;;;;;5.20;3.13;;;;;;;1.37;50.34;100475.16;4974604;28;20512;-82
2021/03/06 09:40:49;;;;;;;4.33;3.03;;;;;;;1.24;49.73;100460.78;4972944;28;20049;-82
2021/03/06 09:43:24;;;;;;;4.47;3.03;;;;;;;1.48;49.27;100501.28;4973532;28;20062;-82
2021/03/06 09:45:53;;;;;;;5.43;3.33;;;;;;;1.49;52.04;100500.34;4974188;28;20157;-83
2021/03/06 09:48:20;;;;;;;3.70;3.00;;;;;;;1.59;49.13;100480.03;4974497;28;20129;-83
2021/03/06 09:50:51;;;;;;;3.53;3.07;;;;;;;1.73;50.38;100487.22;4973600;28;20109;-82
2021/03/06 09:53:20;;;;;;;4.03;3.00;;;;;;;1.68;50.67;100464.34;4972845;28;20618;-81
2021/03/06 09:55:47;;;;;;;4.30;2.87;;;;;;;1.80;50.07;100486.84;4972664;28;20065;-82
2021/03/06 09:58:31;;;;;;;3.60;2.93;;;;;;;1.80;50.19;100474.28;4973896;28;20047;-83
2021/03/06 10:01:13;;;;;;;6.83;3.60;;;;;;;1.83;49.96;100449.97;4973629;28;20493;-83
2021/03/06 10:03:40;;;;;;;4.93;3.07;;;;;;;1.95;50.32;100459.03;4973356;28;20487;-83
2021/03/06 10:06:10;;;;;;;4.27;2.80;;;;;;;2.17;50.68;100468.38;4972490;28;20507;-83
2021/03/06 10:08:43;;;;;;;3.70;2.60;;;;;;;2.20;49.39;100478.91;4973564;28;20054;-83
2021/03/06 10:11:10;;;;;;;3.40;2.80;;;;;;;2.20;48.10;100446.72;4973306;28;20418;-83
2021/03/06 10:13:37;;;;;;;4.28;2.72;;;;;;;2.38;48.63;100483.13;4972954;28;20454;-83
2021/03/06 10:16:04;;;;;;;3.67;2.83;;;;;;;2.43;48.26;100480.13;4972816;28;20057;-83
2021/03/06 10:18:37;;;;;;;5.53;3.42;;;;;;;2.52;47.22;100476.00;4971459;28;20054;-83
2021/03/06 10:21:11;;;;;;;3.93;2.33;;;;;;;2.36;47.89;100451.97;4973405;28;20047;-83
2021/03/06 10:23:37;;;;;;;5.45;2.45;;;;;;;2.47;46.24;100455.66;4973298;28;20058;-83
2021/03/06 10:26:15;;;;;;;4.15;2.50;;;;;;;2.50;47.57;100434.94;4972729;28;20069;-83
2021/03/06 10:28:42;;;;;;;5.73;2.20;;;;;;;2.65;46.10;100445.53;4968602;28;20051;-82
2021/03/06 10:31:27;;;;;;;2.50;2.25;;;;;;;2.70;44.90;100437.16;4968326;28;20178;-83
2021/03/06 10:33:56;;;;;;;3.92;2.70;;;;;;;2.67;44.01;100442.75;4973183;28;20139;-83
2021/03/06 10:36:23;;;;;;;4.00;2.47;;;;;;;2.78;41.91;100458.13;4972429;28;20542;-83
2021/03/06 10:38:51;;;;;;;4.50;2.53;;;;;;;2.76;43.83;100454.69;4973178;28;20487;-83
2021/03/06 10:41:19;;;;;;;4.78;2.78;;;;;;;2.86;42.14;100460.28;4973123;28;20058;-83
2021/03/06 10:43:53;;;;;;;3.85;2.45;;;;;;;2.78;44.05;100448.22;4973044;28;20678;-83
2021/03/06 10:46:21;;;;;;;2.83;2.20;;;;;;;2.87;44.77;100438.69;4964459;28;20488;-83
2021/03/06 10:48:54;;;;;;;6.45;2.70;;;;;;;3.02;44.26;100431.41;4972707;28;20553;-83
2021/03/06 10:51:22;;;;;;;3.42;2.65;;;;;;;3.26;45.64;100436.91;4972722;28;20054;-83
2021/03/06 10:53:59;;;;;;;2.90;2.17;;;;;;;3.42;44.49;100446.59;4970653;28;20054;-83
2021/03/06 10:56:28;;;;;;;3.03;2.45;;;;;;;3.51;42.63;100454.03;4972681;28;20459;-83
2021/03/06 10:58:56;;;;;;;5.80;1.93;;;;;;;3.45;42.91;100449.09;4972481;28;20494;-83
2021/03/06 11:01:23;;;;;;;3.90;2.10;;;;;;;3.35;41.63;100444.34;4972744;28;20062;-83
2021/03/06 11:03:51;;;;;;;7.60;2.75;;;;;;;3.41;41.24;100429.63;4971520;28;20586;-83
2021/03/06 11:06:19;;;;;;;2.95;1.80;;;;;;;3.52;41.63;100459.31;4971797;28;20685;-83
2021/03/06 11:08:59;;;;;;;4.35;1.90;;;;;;;3.57;40.98;100444.66;4972920;28;20106;-83
2021/03/06 11:11:26;;;;;;;4.20;2.50;;;;;;;3.50;40.65;100411.97;4972979;28;20455;-85
2021/03/06 11:13:53;;;;;;;4.63;2.17;;;;;;;3.52;40.70;100428.84;4972694;28;20047;-83
2021/03/06 11:16:40;;;;;;;1.88;1.73;;;;;;;3.57;39.43;100436.59;4956733;28;20085;-83
2021/03/06 11:19:07;;;;;;;3.55;2.08;;;;;;;3.54;40.93;100400.03;4973032;28;20387;-84
2021/03/06 11:21:34;;;;;;;3.58;1.92;;;;;;;3.68;40.53;100421.41;4973271;28;20101;-83
2021/03/06 11:24:04;;;;;;;4.70;2.15;;;;;;;3.82;39.64;100430.31;4968620;28;20058;-83
2021/03/06 11:26:38;;;;;;;3.10;2.15;;;;;;;3.71;39.02;100402.38;4953809;28;20047;-83
2021/03/06 11:29:06;;;;;;;7.57;2.67;;;;;;;3.77;40.21;100403.75;4967403;28;20055;-83
2021/03/06 11:31:34;;;;;;;2.75;2.08;;;;;;;3.90;38.05;100414.50;4973668;28;20479;-84
2021/03/06 11:34:02;;;;;;;2.92;1.88;;;;;;;4.04;37.57;100413.50;4974178;28;20094;-83
2021/03/06 11:36:29;;;;;;;3.72;1.73;;;;;;;4.00;38.07;100414.69;4974119;28;20153;-84
2021/03/06 11:38:57;;;;;;;3.08;1.60;;;;;;;3.96;36.60;100399.72;4975939;28;20043;-84